sensor_id;sensor_type;location;lat;lon;timestamp;P1;durP1;ratioP1;P2;durP2;ratioP2
21301;SDS011;10810;48.270;9.996;2023-04-29T00:01:18;4.77;;;2.63;;
21301;SDS011;10810;48.270;9.996;2023-04-29T00:03:51;4.60;;;2.57;;
21301;SDS011;10810;48.270;9.996;2023-04-29T00:06:34;7.17;;;2.70;;
21301;SDS011;10810;48.270;9.996;2023-04-29T00:09:34;6.20;;;2.70;;
21301;SDS011;10810;48.270;9.996;2023-04-29T00:12:37;4.70;;;2.53;;
21301;SDS011;10810;48.270;9.996;2023-04-29T00:21:43;4.37;;;2.50;;
21301;SDS011;10810;48.270;9.996;2023-04-29T00:24:26;4.47;;;2.53;;
21301;SDS011;10810;48.270;9.996;2023-04-29T00:27:20;4.13;;;2.40;;
21301;SDS011;10810;48.270;9.996;2023-04-29T00:29:50;4.50;;;2.77;;
21301;SDS011;10810;48.270;9.996;2023-04-29T00:32:26;5.00;;;2.50;;
21301;SDS011;10810;48.270;9.996;2023-04-29T00:35:51;6.77;;;2.60;;
21301;SDS011;10810;48.270;9.996;2023-04-29T00:47:18;7.73;;;3.60;;
21301;SDS011;10810;48.270;9.996;2023-04-29T00:49:49;8.17;;;3.50;;
21301;SDS011;10810;48.270;9.996;2023-04-29T00:52:21;7.47;;;3.33;;
21301;SDS011;10810;48.270;9.996;2023-04-29T00:55:13;6.17;;;3.33;;
21301;SDS011;10810;48.270;9.996;2023-04-29T00:57:57;7.70;;;3.70;;
21301;SDS011;10810;48.270;9.996;2023-04-29T01:06:40;8.60;;;4.30;;
21301;SDS011;10810;48.270;9.996;2023-04-29T01:09:37;8.40;;;4.20;;
21301;SDS011;10810;48.270;9.996;2023-04-29T01:12:42;9.33;;;4.17;;
21301;SDS011;10810;48.270;9.996;2023-04-29T01:15:27;8.70;;;4.20;;
21301;SDS011;10810;48.270;9.996;2023-04-29T01:18:19;8.10;;;3.93;;
21301;SDS011;10810;48.270;9.996;2023-04-29T01:21:04;10.33;;;5.00;;
21301;SDS011;10810;48.270;9.996;2023-04-29T01:23:34;10.60;;;5.07;;
21301;SDS011;10810;48.270;9.996;2023-04-29T01:26:19;10.10;;;4.93;;
21301;SDS011;10810;48.270;9.996;2023-04-29T01:28:54;11.20;;;4.90;;
21301;SDS011;10810;48.270;9.996;2023-04-29T01:32:16;10.53;;;5.43;;
21301;SDS011;10810;48.270;9.996;2023-04-29T01:34:43;11.37;;;5.30;;
21301;SDS011;10810;48.270;9.996;2023-04-29T01:37:34;11.77;;;5.60;;
21301;SDS011;10810;48.270;9.996;2023-04-29T01:40:41;11.93;;;5.67;;
21301;SDS011;10810;48.270;9.996;2023-04-29T01:43:24;12.20;;;5.97;;
21301;SDS011;10810;48.270;9.996;2023-04-29T01:46:00;13.60;;;6.37;;
21301;SDS011;10810;48.270;9.996;2023-04-29T01:48:36;15.00;;;6.53;;
21301;SDS011;10810;48.270;9.996;2023-04-29T01:51:37;15.03;;;6.50;;
21301;SDS011;10810;48.270;9.996;2023-04-29T01:54:07;17.97;;;7.40;;
21301;SDS011;10810;48.270;9.996;2023-04-29T01:56:39;15.73;;;7.00;;
21301;SDS011;10810;48.270;9.996;2023-04-29T01:59:42;17.83;;;6.53;;
21301;SDS011;10810;48.270;9.996;2023-04-29T02:02:31;17.67;;;7.07;;
21301;SDS011;10810;48.270;9.996;2023-04-29T02:05:21;17.70;;;7.60;;
21301;SDS011;10810;48.270;9.996;2023-04-29T02:07:51;19.67;;;7.50;;
21301;SDS011;10810;48.270;9.996;2023-04-29T02:10:37;20.20;;;7.40;;
21301;SDS011;10810;48.270;9.996;2023-04-29T02:16:18;17.63;;;7.53;;
21301;SDS011;10810;48.270;9.996;2023-04-29T02:18:45;16.67;;;7.60;;
21301;SDS011;10810;48.270;9.996;2023-04-29T02:24:35;18.93;;;7.93;;
21301;SDS011;10810;48.270;9.996;2023-04-29T02:27:20;20.40;;;7.77;;
21301;SDS011;10810;48.270;9.996;2023-04-29T02:30:02;18.60;;;7.83;;
21301;SDS011;10810;48.270;9.996;2023-04-29T02:32:46;18.27;;;7.97;;
21301;SDS011;10810;48.270;9.996;2023-04-29T02:35:20;16.53;;;7.50;;
21301;SDS011;10810;48.270;9.996;2023-04-29T02:38:14;16.93;;;7.53;;
21301;SDS011;10810;48.270;9.996;2023-04-29T02:40:47;18.53;;;7.70;;
21301;SDS011;10810;48.270;9.996;2023-04-29T02:43:29;20.00;;;8.20;;
21301;SDS011;10810;48.270;9.996;2023-04-29T02:46:16;20.80;;;8.67;;
21301;SDS011;10810;48.270;9.996;2023-04-29T02:49:12;20.50;;;8.17;;
21301;SDS011;10810;48.270;9.996;2023-04-29T02:51:55;20.23;;;8.67;;
21301;SDS011;10810;48.270;9.996;2023-04-29T02:54:38;20.10;;;8.07;;
21301;SDS011;10810;48.270;9.996;2023-04-29T02:57:29;20.10;;;8.57;;
21301;SDS011;10810;48.270;9.996;2023-04-29T03:00:11;19.63;;;8.20;;
21301;SDS011;10810;48.270;9.996;2023-04-29T03:03:34;22.00;;;7.83;;
21301;SDS011;10810;48.270;9.996;2023-04-29T03:09:33;19.27;;;7.63;;
21301;SDS011;10810;48.270;9.996;2023-04-29T03:12:30;19.77;;;7.70;;
21301;SDS011;10810;48.270;9.996;2023-04-29T03:17:53;19.20;;;8.47;;
21301;SDS011;10810;48.270;9.996;2023-04-29T03:20:36;19.13;;;8.30;;
21301;SDS011;10810;48.270;9.996;2023-04-29T03:23:05;22.37;;;8.53;;
21301;SDS011;10810;48.270;9.996;2023-04-29T03:28:56;17.57;;;7.93;;
21301;SDS011;10810;48.270;9.996;2023-04-29T03:31:31;20.70;;;7.37;;
21301;SDS011;10810;48.270;9.996;2023-04-29T03:34:06;20.13;;;8.30;;
21301;SDS011;10810;48.270;9.996;2023-04-29T03:36:47;20.90;;;8.00;;
21301;SDS011;10810;48.270;9.996;2023-04-29T03:39:28;18.47;;;7.60;;
21301;SDS011;10810;48.270;9.996;2023-04-29T03:41:59;19.57;;;8.23;;
21301;SDS011;10810;48.270;9.996;2023-04-29T03:44:32;20.10;;;7.83;;
21301;SDS011;10810;48.270;9.996;2023-04-29T03:47:11;18.03;;;8.37;;
21301;SDS011;10810;48.270;9.996;2023-04-29T03:49:56;19.37;;;7.63;;
21301;SDS011;10810;48.270;9.996;2023-04-29T03:52:44;18.63;;;8.40;;
21301;SDS011;10810;48.270;9.996;2023-04-29T03:55:37;21.10;;;7.90;;
21301;SDS011;10810;48.270;9.996;2023-04-29T04:04:47;18.33;;;7.10;;
21301;SDS011;10810;48.270;9.996;2023-04-29T04:07:27;18.93;;;7.97;;
21301;SDS011;10810;48.270;9.996;2023-04-29T04:10:00;15.67;;;7.43;;
21301;SDS011;10810;48.270;9.996;2023-04-29T04:12:50;21.10;;;8.07;;
21301;SDS011;10810;48.270;9.996;2023-04-29T04:15:58;17.17;;;7.87;;
21301;SDS011;10810;48.270;9.996;2023-04-29T04:18:48;17.67;;;7.70;;
21301;SDS011;10810;48.270;9.996;2023-04-29T04:21:27;17.83;;;7.93;;
21301;SDS011;10810;48.270;9.996;2023-04-29T04:24:08;18.13;;;7.60;;
21301;SDS011;10810;48.270;9.996;2023-04-29T04:26:46;17.63;;;7.23;;
21301;SDS011;10810;48.270;9.996;2023-04-29T04:29:14;17.60;;;7.67;;
21301;SDS011;10810;48.270;9.996;2023-04-29T04:31:56;18.33;;;7.43;;
21301;SDS011;10810;48.270;9.996;2023-04-29T04:34:36;19.77;;;7.57;;
21301;SDS011;10810;48.270;9.996;2023-04-29T04:40:14;17.57;;;7.73;;
21301;SDS011;10810;48.270;9.996;2023-04-29T04:43:07;15.43;;;7.23;;
21301;SDS011;10810;48.270;9.996;2023-04-29T04:46:27;16.53;;;7.03;;
21301;SDS011;10810;48.270;9.996;2023-04-29T05:00:11;18.60;;;7.53;;
21301;SDS011;10810;48.270;9.996;2023-04-29T05:02:50;18.97;;;7.87;;
21301;SDS011;10810;48.270;9.996;2023-04-29T05:05:56;17.10;;;7.67;;
21301;SDS011;10810;48.270;9.996;2023-04-29T05:09:17;18.43;;;7.30;;
21301;SDS011;10810;48.270;9.996;2023-04-29T05:14:06;18.27;;;7.40;;
21301;SDS011;10810;48.270;9.996;2023-04-29T05:15:54;17.07;;;7.30;;
21301;SDS011;10810;48.270;9.996;2023-04-29T05:18:22;20.37;;;7.73;;
21301;SDS011;10810;48.270;9.996;2023-04-29T05:21:14;20.07;;;7.70;;
21301;SDS011;10810;48.270;9.996;2023-04-29T05:24:30;17.80;;;7.00;;
21301;SDS011;10810;48.270;9.996;2023-04-29T05:27:18;18.43;;;7.43;;
21301;SDS011;10810;48.270;9.996;2023-04-29T05:30:22;17.93;;;7.57;;
21301;SDS011;10810;48.270;9.996;2023-04-29T05:33:12;20.93;;;7.67;;
21301;SDS011;10810;48.270;9.996;2023-04-29T05:35:59;18.87;;;8.20;;
21301;SDS011;10810;48.270;9.996;2023-04-29T05:38:34;20.67;;;8.40;;
21301;SDS011;10810;48.270;9.996;2023-04-29T05:41:28;20.63;;;7.90;;
21301;SDS011;10810;48.270;9.996;2023-04-29T05:44:21;19.30;;;7.77;;
21301;SDS011;10810;48.270;9.996;2023-04-29T05:47:20;17.73;;;7.20;;
21301;SDS011;10810;48.270;9.996;2023-04-29T05:50:32;18.33;;;7.37;;
21301;SDS011;10810;48.270;9.996;2023-04-29T05:53:17;21.40;;;8.43;;
21301;SDS011;10810;48.270;9.996;2023-04-29T05:55:51;18.03;;;7.47;;
21301;SDS011;10810;48.270;9.996;2023-04-29T05:58:39;18.00;;;7.60;;
21301;SDS011;10810;48.270;9.996;2023-04-29T06:01:37;20.43;;;8.40;;
21301;SDS011;10810;48.270;9.996;2023-04-29T06:04:14;17.70;;;7.17;;
21301;SDS011;10810;48.270;9.996;2023-04-29T06:07:01;18.43;;;7.50;;
21301;SDS011;10810;48.270;9.996;2023-04-29T06:09:46;16.07;;;7.80;;
21301;SDS011;10810;48.270;9.996;2023-04-29T06:17:19;14.07;;;7.20;;
21301;SDS011;10810;48.270;9.996;2023-04-29T06:20:53;16.10;;;7.27;;
21301;SDS011;10810;48.270;9.996;2023-04-29T06:26:23;16.23;;;6.73;;
21301;SDS011;10810;48.270;9.996;2023-04-29T06:29:19;13.93;;;6.47;;
21301;SDS011;10810;48.270;9.996;2023-04-29T06:32:27;16.27;;;7.03;;
21301;SDS011;10810;48.270;9.996;2023-04-29T06:35:40;14.77;;;6.70;;
21301;SDS011;10810;48.270;9.996;2023-04-29T06:38:12;13.83;;;6.67;;
21301;SDS011;10810;48.270;9.996;2023-04-29T06:40:40;14.87;;;7.40;;
21301;SDS011;10810;48.270;9.996;2023-04-29T06:43:10;14.50;;;6.57;;
21301;SDS011;10810;48.270;9.996;2023-04-29T06:46:03;14.87;;;6.70;;
21301;SDS011;10810;48.270;9.996;2023-04-29T06:48:46;15.03;;;6.87;;
21301;SDS011;10810;48.270;9.996;2023-04-29T06:51:17;13.23;;;6.53;;
21301;SDS011;10810;48.270;9.996;2023-04-29T06:54:34;11.67;;;5.83;;
21301;SDS011;10810;48.270;9.996;2023-04-29T06:57:11;11.03;;;5.50;;
21301;SDS011;10810;48.270;9.996;2023-04-29T06:59:41;10.63;;;5.67;;
21301;SDS011;10810;48.270;9.996;2023-04-29T07:02:50;15.73;;;8.23;;
21301;SDS011;10810;48.270;9.996;2023-04-29T07:05:37;10.77;;;5.87;;
21301;SDS011;10810;48.270;9.996;2023-04-29T07:08:34;11.43;;;6.07;;
21301;SDS011;10810;48.270;9.996;2023-04-29T07:11:20;12.60;;;5.00;;
21301;SDS011;10810;48.270;9.996;2023-04-29T07:13:49;9.20;;;4.90;;
21301;SDS011;10810;48.270;9.996;2023-04-29T07:16:21;11.73;;;5.17;;
21301;SDS011;10810;48.270;9.996;2023-04-29T07:19:04;11.73;;;5.03;;
21301;SDS011;10810;48.270;9.996;2023-04-29T07:21:31;7.80;;;4.33;;
21301;SDS011;10810;48.270;9.996;2023-04-29T07:24:06;9.60;;;4.80;;
21301;SDS011;10810;48.270;9.996;2023-04-29T07:26:55;10.63;;;4.07;;
21301;SDS011;10810;48.270;9.996;2023-04-29T07:29:27;8.10;;;4.60;;
21301;SDS011;10810;48.270;9.996;2023-04-29T07:32:53;8.40;;;4.23;;
21301;SDS011;10810;48.270;9.996;2023-04-29T07:35:53;7.87;;;4.40;;
21301;SDS011;10810;48.270;9.996;2023-04-29T07:39:01;8.13;;;4.50;;
21301;SDS011;10810;48.270;9.996;2023-04-29T07:42:25;8.30;;;4.20;;
21301;SDS011;10810;48.270;9.996;2023-04-29T07:45:07;6.00;;;3.70;;
21301;SDS011;10810;48.270;9.996;2023-04-29T07:47:37;5.50;;;3.57;;
21301;SDS011;10810;48.270;9.996;2023-04-29T07:50:18;7.23;;;3.87;;
21301;SDS011;10810;48.270;9.996;2023-04-29T07:53:28;6.87;;;3.97;;
21301;SDS011;10810;48.270;9.996;2023-04-29T07:57:32;6.40;;;3.80;;
21301;SDS011;10810;48.270;9.996;2023-04-29T07:59:34;6.60;;;3.83;;
21301;SDS011;10810;48.270;9.996;2023-04-29T08:02:07;7.47;;;4.03;;
21301;SDS011;10810;48.270;9.996;2023-04-29T08:04:44;7.83;;;4.03;;
21301;SDS011;10810;48.270;9.996;2023-04-29T08:07:15;6.57;;;3.70;;
21301;SDS011;10810;48.270;9.996;2023-04-29T08:09:46;5.70;;;3.17;;
21301;SDS011;10810;48.270;9.996;2023-04-29T08:12:29;6.37;;;3.00;;
21301;SDS011;10810;48.270;9.996;2023-04-29T08:17:48;6.90;;;3.27;;
21301;SDS011;10810;48.270;9.996;2023-04-29T08:20:20;3.37;;;2.20;;
21301;SDS011;10810;48.270;9.996;2023-04-29T08:22:47;4.33;;;2.20;;
21301;SDS011;10810;48.270;9.996;2023-04-29T08:25:15;2.33;;;1.43;;
21301;SDS011;10810;48.270;9.996;2023-04-29T08:27:42;2.77;;;1.70;;
21301;SDS011;10810;48.270;9.996;2023-04-29T08:30:15;3.23;;;1.90;;
21301;SDS011;10810;48.270;9.996;2023-04-29T08:35:48;2.77;;;2.00;;
21301;SDS011;10810;48.270;9.996;2023-04-29T08:38:46;3.10;;;1.90;;
21301;SDS011;10810;48.270;9.996;2023-04-29T08:41:31;2.43;;;1.60;;
21301;SDS011;10810;48.270;9.996;2023-04-29T08:44:15;2.60;;;1.63;;
21301;SDS011;10810;48.270;9.996;2023-04-29T08:47:08;2.53;;;1.40;;
21301;SDS011;10810;48.270;9.996;2023-04-29T08:49:55;2.80;;;1.80;;
21301;SDS011;10810;48.270;9.996;2023-04-29T08:52:26;3.13;;;1.50;;
21301;SDS011;10810;48.270;9.996;2023-04-29T08:55:33;1.87;;;1.20;;
21301;SDS011;10810;48.270;9.996;2023-04-29T08:57:55;1.87;;;1.30;;
21301;SDS011;10810;48.270;9.996;2023-04-29T09:00:31;1.87;;;1.10;;
21301;SDS011;10810;48.270;9.996;2023-04-29T09:03:00;1.73;;;1.10;;
21301;SDS011;10810;48.270;9.996;2023-04-29T09:05:42;1.13;;;0.97;;
21301;SDS011;10810;48.270;9.996;2023-04-29T09:08:34;1.60;;;1.20;;
21301;SDS011;10810;48.270;9.996;2023-04-29T09:13:16;1.70;;;1.20;;
21301;SDS011;10810;48.270;9.996;2023-04-29T09:14:39;3.10;;;1.20;;
21301;SDS011;10810;48.270;9.996;2023-04-29T09:17:10;2.27;;;1.20;;
21301;SDS011;10810;48.270;9.996;2023-04-29T09:19:37;2.37;;;1.27;;
21301;SDS011;10810;48.270;9.996;2023-04-29T09:22:13;4.53;;;1.00;;
21301;SDS011;10810;48.270;9.996;2023-04-29T09:24:45;2.50;;;1.00;;
21301;SDS011;10810;48.270;9.996;2023-04-29T09:27:25;3.77;;;1.27;;
21301;SDS011;10810;48.270;9.996;2023-04-29T09:29:59;4.03;;;1.40;;
21301;SDS011;10810;48.270;9.996;2023-04-29T09:32:44;3.17;;;1.87;;
21301;SDS011;10810;48.270;9.996;2023-04-29T09:35:48;1.63;;;1.10;;
21301;SDS011;10810;48.270;9.996;2023-04-29T09:38:17;3.53;;;1.70;;
21301;SDS011;10810;48.270;9.996;2023-04-29T09:42:27;1.80;;;1.17;;
21301;SDS011;10810;48.270;9.996;2023-04-29T09:44:03;2.77;;;1.20;;
21301;SDS011;10810;48.270;9.996;2023-04-29T09:46:36;2.40;;;1.27;;
21301;SDS011;10810;48.270;9.996;2023-04-29T09:49:21;1.13;;;1.00;;
21301;SDS011;10810;48.270;9.996;2023-04-29T09:52:21;1.67;;;1.00;;
21301;SDS011;10810;48.270;9.996;2023-04-29T09:54:49;1.50;;;0.90;;
21301;SDS011;10810;48.270;9.996;2023-04-29T09:57:38;1.20;;;0.90;;
21301;SDS011;10810;48.270;9.996;2023-04-29T10:00:39;2.10;;;1.60;;
21301;SDS011;10810;48.270;9.996;2023-04-29T10:03:08;1.10;;;0.73;;
21301;SDS011;10810;48.270;9.996;2023-04-29T10:05:40;1.60;;;1.00;;
21301;SDS011;10810;48.270;9.996;2023-04-29T10:08:24;4.97;;;2.57;;
21301;SDS011;10810;48.270;9.996;2023-04-29T10:11:03;1.50;;;1.10;;
21301;SDS011;10810;48.270;9.996;2023-04-29T10:14:02;0.97;;;0.70;;
21301;SDS011;10810;48.270;9.996;2023-04-29T10:19:58;2.67;;;1.10;;
21301;SDS011;10810;48.270;9.996;2023-04-29T10:22:54;1.93;;;1.20;;
21301;SDS011;10810;48.270;9.996;2023-04-29T10:28:37;2.17;;;1.00;;
21301;SDS011;10810;48.270;9.996;2023-04-29T10:31:15;2.23;;;1.03;;
21301;SDS011;10810;48.270;9.996;2023-04-29T10:33:45;4.13;;;2.10;;
21301;SDS011;10810;48.270;9.996;2023-04-29T10:36:14;3.37;;;1.33;;
21301;SDS011;10810;48.270;9.996;2023-04-29T10:38:44;2.07;;;1.30;;
21301;SDS011;10810;48.270;9.996;2023-04-29T10:41:16;3.97;;;1.70;;
21301;SDS011;10810;48.270;9.996;2023-04-29T10:43:51;3.33;;;1.90;;
21301;SDS011;10810;48.270;9.996;2023-04-29T10:46:33;3.90;;;1.80;;
21301;SDS011;10810;48.270;9.996;2023-04-29T10:49:07;3.77;;;1.50;;
21301;SDS011;10810;48.270;9.996;2023-04-29T10:52:27;1.80;;;1.10;;
21301;SDS011;10810;48.270;9.996;2023-04-29T10:55:00;1.37;;;1.10;;
21301;SDS011;10810;48.270;9.996;2023-04-29T10:57:41;1.00;;;0.80;;
21301;SDS011;10810;48.270;9.996;2023-04-29T11:03:13;2.10;;;1.20;;
21301;SDS011;10810;48.270;9.996;2023-04-29T11:06:37;0.97;;;0.77;;
21301;SDS011;10810;48.270;9.996;2023-04-29T11:09:07;2.27;;;1.10;;
21301;SDS011;10810;48.270;9.996;2023-04-29T11:11:45;1.43;;;0.80;;
21301;SDS011;10810;48.270;9.996;2023-04-29T11:14:40;2.43;;;0.90;;
21301;SDS011;10810;48.270;9.996;2023-04-29T11:17:37;1.57;;;0.70;;
21301;SDS011;10810;48.270;9.996;2023-04-29T11:20:12;1.27;;;0.63;;
21301;SDS011;10810;48.270;9.996;2023-04-29T11:22:40;0.97;;;0.70;;
21301;SDS011;10810;48.270;9.996;2023-04-29T11:27:29;1.63;;;0.80;;
21301;SDS011;10810;48.270;9.996;2023-04-29T11:28:27;3.57;;;1.00;;
21301;SDS011;10810;48.270;9.996;2023-04-29T11:30:57;2.30;;;0.87;;
21301;SDS011;10810;48.270;9.996;2023-04-29T11:33:37;0.60;;;0.60;;
21301;SDS011;10810;48.270;9.996;2023-04-29T11:36:07;0.90;;;0.80;;
21301;SDS011;10810;48.270;9.996;2023-04-29T11:38:46;0.80;;;0.70;;
21301;SDS011;10810;48.270;9.996;2023-04-29T11:41:13;0.90;;;0.70;;
21301;SDS011;10810;48.270;9.996;2023-04-29T11:43:44;1.53;;;0.87;;
21301;SDS011;10810;48.270;9.996;2023-04-29T11:46:12;1.70;;;0.70;;
21301;SDS011;10810;48.270;9.996;2023-04-29T11:48:46;1.80;;;1.13;;
21301;SDS011;10810;48.270;9.996;2023-04-29T11:51:18;1.40;;;0.80;;
21301;SDS011;10810;48.270;9.996;2023-04-29T11:53:53;3.00;;;0.97;;
21301;SDS011;10810;48.270;9.996;2023-04-29T11:56:36;0.73;;;0.60;;
21301;SDS011;10810;48.270;9.996;2023-04-29T11:59:14;1.43;;;0.70;;
21301;SDS011;10810;48.270;9.996;2023-04-29T12:01:43;0.83;;;0.70;;
21301;SDS011;10810;48.270;9.996;2023-04-29T12:04:15;0.83;;;0.67;;
21301;SDS011;10810;48.270;9.996;2023-04-29T12:06:46;0.80;;;0.70;;
21301;SDS011;10810;48.270;9.996;2023-04-29T12:09:17;0.70;;;0.60;;
21301;SDS011;10810;48.270;9.996;2023-04-29T12:11:51;0.93;;;0.70;;
21301;SDS011;10810;48.270;9.996;2023-04-29T12:14:21;1.00;;;0.60;;
21301;SDS011;10810;48.270;9.996;2023-04-29T12:17:03;1.00;;;0.80;;
21301;SDS011;10810;48.270;9.996;2023-04-29T12:22:45;1.17;;;0.80;;
21301;SDS011;10810;48.270;9.996;2023-04-29T12:25:23;1.00;;;0.70;;
21301;SDS011;10810;48.270;9.996;2023-04-29T12:31:37;0.97;;;0.80;;
21301;SDS011;10810;48.270;9.996;2023-04-29T12:34:17;2.78;;;0.63;;
21301;SDS011;10810;48.270;9.996;2023-04-29T12:37:14;1.58;;;1.10;;
21301;SDS011;10810;48.270;9.996;2023-04-29T12:39:53;1.40;;;1.00;;
21301;SDS011;10810;48.270;9.996;2023-04-29T12:44:05;4.45;;;0.82;;
21301;SDS011;10810;48.270;9.996;2023-04-29T12:45:34;1.03;;;0.80;;
21301;SDS011;10810;48.270;9.996;2023-04-29T12:48:12;1.90;;;0.70;;
21301;SDS011;10810;48.270;9.996;2023-04-29T12:51:11;0.80;;;0.80;;
21301;SDS011;10810;48.270;9.996;2023-04-29T12:53:52;1.40;;;0.80;;
21301;SDS011;10810;48.270;9.996;2023-04-29T12:56:26;0.83;;;0.70;;
21301;SDS011;10810;48.270;9.996;2023-04-29T12:58:54;1.30;;;0.70;;
21301;SDS011;10810;48.270;9.996;2023-04-29T13:01:51;0.93;;;0.80;;
21301;SDS011;10810;48.270;9.996;2023-04-29T13:04:55;1.30;;;0.90;;
21301;SDS011;10810;48.270;9.996;2023-04-29T13:07:49;1.33;;;0.95;;
21301;SDS011;10810;48.270;9.996;2023-04-29T13:10:16;1.60;;;0.83;;
21301;SDS011;10810;48.270;9.996;2023-04-29T13:12:59;1.20;;;0.95;;
21301;SDS011;10810;48.270;9.996;2023-04-29T13:15:40;1.40;;;0.90;;
21301;SDS011;10810;48.270;9.996;2023-04-29T13:18:35;1.23;;;0.90;;
21301;SDS011;10810;48.270;9.996;2023-04-29T13:22:52;0.88;;;0.80;;
21301;SDS011;10810;48.270;9.996;2023-04-29T13:24:08;2.70;;;0.90;;
21301;SDS011;10810;48.270;9.996;2023-04-29T13:26:36;1.00;;;0.90;;
21301;SDS011;10810;48.270;9.996;2023-04-29T13:32:14;1.65;;;1.33;;
21301;SDS011;10810;48.270;9.996;2023-04-29T13:34:47;1.80;;;1.30;;
21301;SDS011;10810;48.270;9.996;2023-04-29T13:37:37;1.57;;;1.20;;
21301;SDS011;10810;48.270;9.996;2023-04-29T13:40:30;1.30;;;1.13;;
21301;SDS011;10810;48.270;9.996;2023-04-29T13:42:57;1.58;;;1.10;;
21301;SDS011;10810;48.270;9.996;2023-04-29T13:45:28;2.20;;;1.15;;
21301;SDS011;10810;48.270;9.996;2023-04-29T13:48:08;2.15;;;1.15;;
21301;SDS011;10810;48.270;9.996;2023-04-29T13:50:43;2.53;;;1.30;;
21301;SDS011;10810;48.270;9.996;2023-04-29T13:53:10;1.38;;;1.20;;
21301;SDS011;10810;48.270;9.996;2023-04-29T13:55:56;2.23;;;1.20;;
21301;SDS011;10810;48.270;9.996;2023-04-29T13:58:48;3.13;;;1.17;;
21301;SDS011;10810;48.270;9.996;2023-04-29T14:01:23;1.60;;;1.30;;
21301;SDS011;10810;48.270;9.996;2023-04-29T14:06:50;1.63;;;1.30;;
21301;SDS011;10810;48.270;9.996;2023-04-29T14:09:17;2.15;;;1.40;;
21301;SDS011;10810;48.270;9.996;2023-04-29T14:11:44;2.20;;;1.40;;
21301;SDS011;10810;48.270;9.996;2023-04-29T14:14:15;2.93;;;1.30;;
21301;SDS011;10810;48.270;9.996;2023-04-29T14:16:48;2.20;;;1.30;;
21301;SDS011;10810;48.270;9.996;2023-04-29T14:19:19;3.03;;;1.50;;
21301;SDS011;10810;48.270;9.996;2023-04-29T14:21:46;2.17;;;1.57;;
21301;SDS011;10810;48.270;9.996;2023-04-29T14:24:29;1.97;;;1.40;;
21301;SDS011;10810;48.270;9.996;2023-04-29T14:31:02;2.80;;;1.70;;
21301;SDS011;10810;48.270;9.996;2023-04-29T14:33:53;3.47;;;1.43;;
21301;SDS011;10810;48.270;9.996;2023-04-29T14:37:15;1.93;;;1.40;;
21301;SDS011;10810;48.270;9.996;2023-04-29T14:42:56;1.93;;;1.40;;
21301;SDS011;10810;48.270;9.996;2023-04-29T14:46:09;3.80;;;1.60;;
21301;SDS011;10810;48.270;9.996;2023-04-29T14:48:46;2.70;;;1.60;;
21301;SDS011;10810;48.270;9.996;2023-04-29T14:51:20;2.83;;;1.80;;
21301;SDS011;10810;48.270;9.996;2023-04-29T14:56:48;5.37;;;2.33;;
21301;SDS011;10810;48.270;9.996;2023-04-29T14:59:17;2.73;;;1.80;;
21301;SDS011;10810;48.270;9.996;2023-04-29T15:01:45;4.50;;;2.17;;
21301;SDS011;10810;48.270;9.996;2023-04-29T15:04:33;3.27;;;1.90;;
21301;SDS011;10810;48.270;9.996;2023-04-29T15:07:00;2.20;;;1.50;;
21301;SDS011;10810;48.270;9.996;2023-04-29T15:09:36;3.13;;;1.67;;
21301;SDS011;10810;48.270;9.996;2023-04-29T15:12:10;2.37;;;1.80;;
21301;SDS011;10810;48.270;9.996;2023-04-29T15:14:38;3.43;;;1.90;;
21301;SDS011;10810;48.270;9.996;2023-04-29T15:17:11;2.07;;;1.77;;
21301;SDS011;10810;48.270;9.996;2023-04-29T15:19:44;3.47;;;2.13;;
21301;SDS011;10810;48.270;9.996;2023-04-29T15:22:15;3.83;;;1.80;;
21301;SDS011;10810;48.270;9.996;2023-04-29T15:24:45;2.33;;;1.80;;
21301;SDS011;10810;48.270;9.996;2023-04-29T15:27:16;2.83;;;1.90;;
21301;SDS011;10810;48.270;9.996;2023-04-29T15:29:43;3.13;;;1.70;;
21301;SDS011;10810;48.270;9.996;2023-04-29T15:32:10;3.50;;;1.83;;
21301;SDS011;10810;48.270;9.996;2023-04-29T15:34:37;1.63;;;1.40;;
21301;SDS011;10810;48.270;9.996;2023-04-29T15:37:14;2.70;;;1.80;;
21301;SDS011;10810;48.270;9.996;2023-04-29T15:40:10;3.13;;;1.90;;
21301;SDS011;10810;48.270;9.996;2023-04-29T15:42:39;2.07;;;1.60;;
21301;SDS011;10810;48.270;9.996;2023-04-29T15:45:07;3.30;;;1.70;;
21301;SDS011;10810;48.270;9.996;2023-04-29T15:47:35;3.07;;;1.60;;
21301;SDS011;10810;48.270;9.996;2023-04-29T15:50:02;2.90;;;1.60;;
21301;SDS011;10810;48.270;9.996;2023-04-29T15:52:31;3.27;;;1.63;;
21301;SDS011;10810;48.270;9.996;2023-04-29T15:54:58;2.70;;;1.73;;
21301;SDS011;10810;48.270;9.996;2023-04-29T15:57:26;3.53;;;1.70;;
21301;SDS011;10810;48.270;9.996;2023-04-29T15:59:53;2.23;;;1.50;;
21301;SDS011;10810;48.270;9.996;2023-04-29T16:02:20;2.80;;;1.63;;
21301;SDS011;10810;48.270;9.996;2023-04-29T16:04:47;2.50;;;1.47;;
21301;SDS011;10810;48.270;9.996;2023-04-29T16:07:14;4.33;;;2.00;;
21301;SDS011;10810;48.270;9.996;2023-04-29T16:09:42;2.40;;;1.60;;
21301;SDS011;10810;48.270;9.996;2023-04-29T16:12:10;3.13;;;1.93;;
21301;SDS011;10810;48.270;9.996;2023-04-29T16:14:39;3.67;;;2.13;;
21301;SDS011;10810;48.270;9.996;2023-04-29T16:17:06;2.87;;;1.80;;
21301;SDS011;10810;48.270;9.996;2023-04-29T16:19:33;2.87;;;1.80;;
21301;SDS011;10810;48.270;9.996;2023-04-29T16:22:00;2.77;;;1.97;;
21301;SDS011;10810;48.270;9.996;2023-04-29T16:24:28;2.83;;;1.83;;
21301;SDS011;10810;48.270;9.996;2023-04-29T16:26:56;4.83;;;2.47;;
21301;SDS011;10810;48.270;9.996;2023-04-29T16:29:23;3.53;;;2.47;;
21301;SDS011;10810;48.270;9.996;2023-04-29T16:31:52;3.43;;;2.30;;
21301;SDS011;10810;48.270;9.996;2023-04-29T16:34:19;2.90;;;2.10;;
21301;SDS011;10810;48.270;9.996;2023-04-29T16:36:46;4.23;;;2.47;;
21301;SDS011;10810;48.270;9.996;2023-04-29T16:39:13;5.27;;;2.50;;
21301;SDS011;10810;48.270;9.996;2023-04-29T16:41:43;7.37;;;3.57;;
21301;SDS011;10810;48.270;9.996;2023-04-29T16:44:10;3.30;;;2.20;;
21301;SDS011;10810;48.270;9.996;2023-04-29T16:46:36;3.03;;;2.00;;
21301;SDS011;10810;48.270;9.996;2023-04-29T16:49:05;3.83;;;2.30;;
21301;SDS011;10810;48.270;9.996;2023-04-29T16:51:34;4.63;;;2.57;;
21301;SDS011;10810;48.270;9.996;2023-04-29T16:54:01;5.67;;;2.40;;
21301;SDS011;10810;48.270;9.996;2023-04-29T16:56:30;4.67;;;2.57;;
21301;SDS011;10810;48.270;9.996;2023-04-29T16:58:59;4.97;;;2.50;;
21301;SDS011;10810;48.270;9.996;2023-04-29T17:01:29;5.07;;;2.67;;
21301;SDS011;10810;48.270;9.996;2023-04-29T17:03:58;4.53;;;2.60;;
21301;SDS011;10810;48.270;9.996;2023-04-29T17:06:30;4.83;;;2.50;;
21301;SDS011;10810;48.270;9.996;2023-04-29T17:08:58;4.27;;;2.50;;
21301;SDS011;10810;48.270;9.996;2023-04-29T17:11:26;6.17;;;2.90;;
21301;SDS011;10810;48.270;9.996;2023-04-29T17:13:54;4.53;;;2.73;;
21301;SDS011;10810;48.270;9.996;2023-04-29T17:16:21;4.87;;;2.80;;
21301;SDS011;10810;48.270;9.996;2023-04-29T17:18:50;5.13;;;3.10;;
21301;SDS011;10810;48.270;9.996;2023-04-29T17:21:17;5.73;;;3.10;;
21301;SDS011;10810;48.270;9.996;2023-04-29T17:23:48;10.77;;;5.37;;
21301;SDS011;10810;48.270;9.996;2023-04-29T17:26:16;5.10;;;3.07;;
21301;SDS011;10810;48.270;9.996;2023-04-29T17:28:43;5.63;;;3.03;;
21301;SDS011;10810;48.270;9.996;2023-04-29T17:31:10;4.03;;;2.53;;
21301;SDS011;10810;48.270;9.996;2023-04-29T17:33:39;3.90;;;2.37;;
21301;SDS011;10810;48.270;9.996;2023-04-29T17:36:18;4.67;;;2.80;;
21301;SDS011;10810;48.270;9.996;2023-04-29T17:38:46;5.87;;;2.90;;
21301;SDS011;10810;48.270;9.996;2023-04-29T17:41:17;5.10;;;3.00;;
21301;SDS011;10810;48.270;9.996;2023-04-29T17:43:46;5.43;;;2.90;;
21301;SDS011;10810;48.270;9.996;2023-04-29T17:46:30;7.80;;;3.13;;
21301;SDS011;10810;48.270;9.996;2023-04-29T17:48:58;6.73;;;3.10;;